Time;durP1;ratioP1;P1;durP2;ratioP2;P2;SDS_P1;SDS_P2;PMS_P1;PMS_P2;Temp;Humidity;BMP_temperature;BMP_pressure;BME280_temperature;BME280_humidity;BME280_pressure;Samples;Min_cycle;Max_cycle;Signal;HPM_P1;HPM_P2
2022/10/18 00:02:13;;;;;;;23.17;10.83;;;;;;;4.26;100.00;101611.08;1773536;81;21006;-72
2022/10/18 00:04:40;;;;;;;20.17;10.60;;;;;;;4.26;100.00;101607.91;1770498;81;21053;-71
2022/10/18 00:07:07;;;;;;;21.10;10.10;;;;;;;4.26;100.00;101608.41;1770206;81;20994;-72
2022/10/18 00:09:35;;;;;;;22.07;9.97;;;;;;;4.25;100.00;101609.34;1770507;81;20994;-71
2022/10/18 00:12:03;;;;;;;23.10;10.47;;;;;;;4.26;100.00;101606.58;1770452;80;21030;-72
2022/10/18 00:14:30;;;;;;;22.63;10.57;;;;;;;4.26;100.00;101602.56;1770130;81;21069;-72
2022/10/18 00:16:58;;;;;;;23.03;10.20;;;;;;;4.27;100.00;101608.80;1770149;81;21049;-72
2022/10/18 00:19:25;;;;;;;24.07;10.70;;;;;;;4.26;100.00;101609.73;1770501;81;21022;-72
2022/10/18 00:21:51;;;;;;;21.13;10.63;;;;;;;4.24;100.00;101612.98;1770542;81;21001;-72
2022/10/18 00:24:18;;;;;;;23.87;10.43;;;;;;;4.24;100.00;101607.15;1770248;80;21030;-72
2022/10/18 00:26:45;;;;;;;24.53;10.73;;;;;;;4.22;100.00;101606.38;1770480;81;20990;-72
2022/10/18 00:29:14;;;;;;;23.47;10.93;;;;;;;4.19;100.00;101608.75;1770248;81;21023;-73
2022/10/18 00:31:43;;;;;;;21.87;11.37;;;;;;;4.17;100.00;101601.29;1770456;80;21097;-72
2022/10/18 00:34:13;;;;;;;25.80;11.33;;;;;;;4.13;100.00;101603.78;1770567;80;21069;-72
2022/10/18 00:36:40;;;;;;;23.00;10.23;;;;;;;4.11;100.00;101593.64;1779559;80;21030;-72
2022/10/18 00:39:07;;;;;;;21.73;10.77;;;;;;;4.11;100.00;101592.30;1780070;80;21019;-72
2022/10/18 00:41:36;;;;;;;24.03;12.07;;;;;;;4.11;100.00;101586.09;1781467;80;20940;-73
2022/10/18 00:44:14;;;;;;;24.67;12.03;;;;;;;4.11;100.00;101590.11;1780306;79;21445;-72
2022/10/18 00:46:43;;;;;;;23.37;11.17;;;;;;;4.08;100.00;101590.28;1779880;80;21010;-72
2022/10/18 00:49:36;;;;;;;24.13;11.27;;;;;;;4.06;100.00;101581.48;1780126;79;21027;-72
2022/10/18 00:52:10;;;;;;;25.00;11.53;;;;;;;4.04;100.00;101580.69;1781180;80;21041;-73
2022/10/18 00:54:39;;;;;;;26.30;11.80;;;;;;;4.03;100.00;101574.48;1780496;80;21086;-73
2022/10/18 00:57:06;;;;;;;26.20;12.13;;;;;;;4.02;100.00;101573.23;1780291;80;21002;-72
2022/10/18 00:59:33;;;;;;;27.20;12.07;;;;;;;3.99;100.00;101575.14;1779802;79;21006;-72
2022/10/18 01:02:00;;;;;;;27.37;12.57;;;;;;;3.98;100.00;101574.78;1778898;81;21010;-72
2022/10/18 01:04:27;;;;;;;25.53;12.13;;;;;;;3.98;100.00;101572.10;1777165;81;21030;-72
2022/10/18 01:07:32;;;;;;;25.57;12.53;;;;;;;3.96;100.00;101567.29;1770430;81;21527;-73
2022/10/18 01:10:25;;;;;;;25.63;11.80;;;;;;;3.95;100.00;101567.41;1767104;81;21069;-72
2022/10/18 01:13:31;;;;;;;25.90;11.70;;;;;;;3.91;100.00;101564.50;1770082;80;21080;-72
2022/10/18 01:16:20;;;;;;;26.60;12.23;;;;;;;3.89;100.00;101558.39;1770465;80;21030;-73
2022/10/18 01:19:16;;;;;;;26.23;12.37;;;;;;;3.86;100.00;101554.55;1786278;80;21026;-72
2022/10/18 01:21:58;;;;;;;27.33;12.60;;;;;;;3.82;100.00;101549.00;1768535;81;21053;-73
2022/10/18 01:25:03;;;;;;;27.13;12.80;;;;;;;3.78;100.00;101550.99;1770110;81;21038;-73
2022/10/18 01:27:44;;;;;;;25.73;12.87;;;;;;;3.76;100.00;101548.41;1769331;81;21092;-73
2022/10/18 01:30:49;;;;;;;27.53;14.33;;;;;;;3.73;100.00;101551.73;1770486;81;21076;-73
2022/10/18 01:33:30;;;;;;;26.20;13.17;;;;;;;3.72;100.00;101550.00;1770332;80;21031;-73
2022/10/18 01:36:24;;;;;;;30.07;14.67;;;;;;;3.70;100.00;101554.12;1776791;80;21011;-72
2022/10/18 01:38:53;;;;;;;27.30;13.07;;;;;;;3.67;100.00;101547.61;1722319;83;21065;-72
2022/10/18 01:41:21;;;;;;;30.73;13.73;;;;;;;3.65;100.00;101538.82;1730252;82;21057;-72
2022/10/18 01:43:50;;;;;;;29.37;14.03;;;;;;;3.64;100.00;101543.77;1729841;83;20993;-71
2022/10/18 01:46:20;;;;;;;26.90;13.87;;;;;;;3.63;100.00;101543.86;1729851;83;21017;-72
2022/10/18 01:48:47;;;;;;;29.80;12.60;;;;;;;3.60;100.00;101545.77;1729804;82;21356;-72
2022/10/18 01:51:13;;;;;;;29.37;13.17;;;;;;;3.58;100.00;101546.81;1729720;83;21057;-73
2022/10/18 01:53:40;;;;;;;30.33;13.77;;;;;;;3.57;100.00;101547.75;1729994;83;21487;-72
2022/10/18 01:56:51;;;;;;;31.63;14.53;;;;;;;3.56;100.00;101544.23;1729556;83;21041;-73
2022/10/18 01:59:56;;;;;;;31.77;14.37;;;;;;;3.56;100.00;101543.34;1726295;82;21055;-72
2022/10/18 02:02:41;;;;;;;29.37;14.83;;;;;;;3.55;100.00;101537.63;1729781;83;21012;-72
2022/10/18 02:05:40;;;;;;;34.30;15.43;;;;;;;3.53;100.00;101534.19;1729842;82;21192;-72
2022/10/18 02:08:40;;;;;;;33.37;14.70;;;;;;;3.53;100.00;101533.70;1726299;83;21008;-72
2022/10/18 02:11:09;;;;;;;29.17;14.50;;;;;;;3.55;100.00;101528.27;1729643;83;21056;-72
2022/10/18 02:13:43;;;;;;;27.83;14.37;;;;;;;3.57;100.00;101527.70;1729522;82;21083;-73
2022/10/18 02:16:33;;;;;;;30.50;14.28;;;;;;;3.57;100.00;101523.69;1729615;83;21067;-72
2022/10/18 02:19:33;;;;;;;29.07;13.90;;;;;;;3.57;100.00;101518.33;1677207;85;21043;-73
2022/10/18 02:22:00;;;;;;;28.17;12.77;;;;;;;3.54;100.00;101513.16;1677249;85;21536;-72
2022/10/18 02:24:47;;;;;;;25.67;13.47;;;;;;;3.50;100.00;101512.47;1677349;85;21081;-74
2022/10/18 02:27:14;;;;;;;27.23;12.47;;;;;;;3.47;100.00;101514.47;1711097;84;21023;-73
2022/10/18 02:29:41;;;;;;;25.20;11.23;;;;;;;3.44;100.00;101511.99;1692644;84;21069;-73
2022/10/18 02:32:42;;;;;;;23.67;12.03;;;;;;;3.42;100.00;101512.08;1692848;83;21085;-72
2022/10/18 02:35:26;;;;;;;29.40;13.60;;;;;;;3.39;100.00;101510.42;1712192;83;21015;-72
2022/10/18 02:37:53;;;;;;;27.87;12.90;;;;;;;3.40;100.00;101509.97;1637771;87;21094;-72
2022/10/18 02:40:20;;;;;;;26.90;12.67;;;;;;;3.38;100.00;101502.48;1638264;87;21103;-73
2022/10/18 02:42:53;;;;;;;26.73;12.67;;;;;;;3.38;100.00;101508.72;1638164;87;21107;-72
2022/10/18 02:45:20;;;;;;;31.37;12.93;;;;;;;3.39;100.00;101507.75;1565931;90;21105;-72
2022/10/18 02:47:47;;;;;;;28.93;12.90;;;;;;;3.38;100.00;101506.50;1586328;90;21175;-72
2022/10/18 02:50:14;;;;;;;30.30;13.20;;;;;;;3.38;100.00;101508.72;1586252;90;21112;-72
2022/10/18 02:52:42;;;;;;;26.67;13.07;;;;;;;3.36;100.00;101505.73;1586425;90;21077;-71
2022/10/18 02:55:09;;;;;;;24.90;11.47;;;;;;;3.35;100.00;101504.03;1586534;90;21500;-73
2022/10/18 02:57:36;;;;;;;27.20;11.57;;;;;;;3.32;100.00;101505.05;1586219;90;21058;-73
2022/10/18 03:00:05;;;;;;;25.23;12.17;;;;;;;3.30;100.00;101507.44;1585745;90;21046;-72
2022/10/18 03:02:32;;;;;;;24.23;11.60;;;;;;;3.27;100.00;101508.45;1555753;92;21138;-72
2022/10/18 03:04:59;;;;;;;24.17;10.67;;;;;;;3.25;100.00;101502.83;1570517;91;21099;-71
2022/10/18 03:07:26;;;;;;;25.90;11.27;;;;;;;3.23;100.00;101499.75;1616908;88;21067;-72
2022/10/18 03:09:52;;;;;;;23.10;11.03;;;;;;;3.22;100.00;101501.17;1604024;89;21078;-72
2022/10/18 03:12:19;;;;;;;24.47;11.47;;;;;;;3.19;100.00;101501.37;1635308;88;21500;-73
2022/10/18 03:14:47;;;;;;;22.23;10.93;;;;;;;3.17;100.00;101497.45;1612093;88;21097;-73
2022/10/18 03:17:15;;;;;;;27.20;11.07;;;;;;;3.15;100.00;101495.79;1693680;84;21046;-72
2022/10/18 03:19:43;;;;;;;26.73;12.37;;;;;;;3.13;100.00;101503.89;1693587;84;21538;-73
2022/10/18 03:22:10;;;;;;;22.73;10.93;;;;;;;3.10;100.00;101501.87;1693413;84;21540;-73
2022/10/18 03:24:37;;;;;;;24.63;10.80;;;;;;;3.10;100.00;101499.20;1693679;84;21662;-72
2022/10/18 03:27:03;;;;;;;24.87;11.70;;;;;;;3.10;100.00;101493.85;1652991;86;21034;-73
2022/10/18 03:29:30;;;;;;;23.00;11.50;;;;;;;3.11;100.00;101490.24;1686285;84;21045;-73
2022/10/18 03:31:57;;;;;;;25.70;11.10;;;;;;;3.11;100.00;101490.24;1685924;85;21062;-73
2022/10/18 03:34:24;;;;;;;24.87;11.67;;;;;;;3.08;100.00;101485.06;1689810;84;21086;-72
2022/10/18 03:36:51;;;;;;;24.50;12.20;;;;;;;3.06;100.00;101489.64;1714406;82;21074;-73
2022/10/18 03:39:18;;;;;;;20.63;10.40;;;;;;;3.02;100.00;101485.80;1714542;84;21038;-73
2022/10/18 03:41:46;;;;;;;24.37;11.37;;;;;;;2.98;100.00;101484.73;1738087;80;21003;-73
2022/10/18 03:44:13;;;;;;;25.07;11.67;;;;;;;2.95;100.00;101479.56;1779540;80;20971;-73
2022/10/18 03:46:39;;;;;;;23.03;10.03;;;;;;;2.92;100.00;101475.27;1780018;80;21031;-72
2022/10/18 03:49:07;;;;;;;21.10;10.20;;;;;;;2.89;100.00;101471.91;1779359;80;21563;-72
2022/10/18 03:51:34;;;;;;;25.53;11.40;;;;;;;2.88;100.00;101469.69;1779461;80;21054;-73
2022/10/18 03:54:02;;;;;;;21.80;10.73;;;;;;;2.89;100.00;101470.09;1779955;80;21489;-74
2022/10/18 03:56:30;;;;;;;23.70;11.57;;;;;;;2.87;100.00;101460.42;1779723;80;20996;-73
2022/10/18 03:58:57;;;;;;;26.13;11.13;;;;;;;2.85;100.00;101464.06;1779540;80;21029;-73
2022/10/18 04:01:24;;;;;;;23.50;11.30;;;;;;;2.84;100.00;101454.79;1779493;80;21023;-73
2022/10/18 04:03:50;;;;;;;23.33;11.00;;;;;;;2.85;100.00;101455.16;1780126;80;20999;-72
2022/10/18 04:06:18;;;;;;;29.67;11.67;;;;;;;2.86;100.00;101455.56;1779627;80;21003;-72
2022/10/18 04:08:46;;;;;;;24.03;12.13;;;;;;;2.87;100.00;101454.63;1779213;80;21059;-72
2022/10/18 04:11:13;;;;;;;28.13;11.60;;;;;;;2.88;100.00;101454.14;1779836;80;21007;-73
2022/10/18 04:13:40;;;;;;;23.17;10.93;;;;;;;2.89;100.00;101450.05;1780167;80;21097;-72
2022/10/18 04:16:06;;;;;;;21.50;10.30;;;;;;;2.92;100.00;101447.66;1781221;80;21039;-73
2022/10/18 04:18:34;;;;;;;22.03;10.37;;;;;;;2.95;100.00;101435.47;1781001;80;21521;-73
2022/10/18 04:21:01;;;;;;;20.60;9.27;;;;;;;2.97;100.00;101426.89;1781224;80;21003;-73
2022/10/18 04:23:29;;;;;;;19.33;9.57;;;;;;;2.98;100.00;101425.95;1781328;79;21071;-72
2022/10/18 04:25:55;;;;;;;23.17;10.03;;;;;;;3.01;100.00;101417.73;1781191;79;21023;-72
2022/10/18 04:28:22;;;;;;;21.67;10.87;;;;;;;3.05;100.00;101423.31;1781294;79;21027;-72
2022/10/18 04:30:50;;;;;;;26.13;11.70;;;;;;;3.08;100.00;101423.14;1781002;80;21469;-72
2022/10/18 04:33:18;;;;;;;26.57;11.20;;;;;;;3.12;100.00;101429.17;1781337;79;21010;-73
2022/10/18 04:35:45;;;;;;;22.67;10.20;;;;;;;3.15;100.00;101442.33;1780264;79;21008;-73
2022/10/18 04:38:13;;;;;;;23.17;10.57;;;;;;;3.18;100.00;101452.38;1779496;81;21573;-73
2022/10/18 04:40:39;;;;;;;27.50;11.53;;;;;;;3.22;100.00;101457.95;1779653;81;20957;-74
2022/10/18 04:43:06;;;;;;;23.20;11.37;;;;;;;3.24;100.00;101469.89;1779769;81;21084;-73
2022/10/18 04:45:33;;;;;;;24.37;11.03;;;;;;;3.26;100.00;101472.45;1779340;81;21035;-72
2022/10/18 04:48:00;;;;;;;26.60;11.37;;;;;;;3.29;100.00;101471.80;1779775;81;21055;-73
2022/10/18 04:50:28;;;;;;;25.03;11.00;;;;;;;3.32;100.00;101465.42;1779446;81;21024;-73
2022/10/18 04:52:56;;;;;;;21.47;10.43;;;;;;;3.35;100.00;101465.25;1779591;81;20985;-73
2022/10/18 04:55:24;;;;;;;24.03;10.70;;;;;;;3.42;100.00;101469.29;1779346;81;21044;-73
2022/10/18 04:58:01;;;;;;;23.37;9.83;;;;;;;3.44;100.00;101470.06;1779417;81;21005;-71
2022/10/18 05:00:32;;;;;;;21.03;10.13;;;;;;;3.47;100.00;101470.34;1779904;80;21094;-70
2022/10/18 05:02:59;;;;;;;20.87;10.17;;;;;;;3.51;100.00;101475.91;1780908;80;20995;-68
2022/10/18 05:05:25;;;;;;;49.03;25.73;;;;;;;3.55;100.00;101478.78;1781274;79;20975;-68
2022/10/18 05:07:53;;;;;;;34.30;18.30;;;;;;;3.63;100.00;101479.20;1781013;79;21548;-68
2022/10/18 05:10:20;;;;;;;39.90;20.37;;;;;;;3.71;100.00;101482.75;1780988;80;20999;-69
2022/10/18 05:12:47;;;;;;;26.40;12.10;;;;;;;3.80;100.00;101475.50;1781382;80;21120;-69
2022/10/18 05:15:14;;;;;;;24.17;10.47;;;;;;;3.90;100.00;101482.52;1779312;80;21019;-69
2022/10/18 05:17:42;;;;;;;30.33;13.90;;;;;;;3.98;100.00;101491.80;1778739;80;21506;-70
2022/10/18 05:20:11;;;;;;;163.53;77.23;;;;;;;4.07;100.00;101489.05;1779005;80;21007;-69
2022/10/18 05:22:39;;;;;;;55.97;29.00;;;;;;;4.16;100.00;101480.45;1779392;80;21023;-71
2022/10/18 05:25:07;;;;;;;28.87;15.07;;;;;;;4.27;100.00;101479.78;1779129;80;21050;-69
2022/10/18 05:27:34;;;;;;;45.43;21.23;;;;;;;4.37;100.00;101494.33;1779434;80;20997;-71
2022/10/18 05:30:02;;;;;;;101.83;55.70;;;;;;;4.47;100.00;101491.06;1779289;80;21032;-70
2022/10/18 05:32:29;;;;;;;28.40;13.67;;;;;;;4.54;100.00;101492.41;1779816;79;20980;-70
2022/10/18 05:34:56;;;;;;;34.07;16.10;;;;;;;4.63;100.00;101494.98;1779084;80;21053;-73
2022/10/18 05:37:24;;;;;;;27.57;12.37;;;;;;;4.70;100.00;101494.48;1779578;80;21032;-70
2022/10/18 05:39:51;;;;;;;38.00;18.37;;;;;;;4.76;100.00;101499.92;1778942;80;20995;-69
2022/10/18 05:42:18;;;;;;;22.03;11.20;;;;;;;4.81;100.00;101495.63;1778732;80;20997;-70
2022/10/18 05:44:45;;;;;;;22.40;10.57;;;;;;;4.86;100.00;101490.34;1779223;80;21502;-70
2022/10/18 05:47:12;;;;;;;20.17;10.13;;;;;;;4.92;100.00;101487.28;1779471;80;21044;-70
2022/10/18 05:49:39;;;;;;;20.20;9.37;;;;;;;5.02;100.00;101488.02;1768378;80;20985;-69
2022/10/18 05:52:06;;;;;;;24.30;10.80;;;;;;;5.09;100.00;101492.88;1779426;80;21048;-69
2022/10/18 05:54:33;;;;;;;21.77;9.67;;;;;;;5.20;100.00;101489.48;1778657;80;20981;-68
2022/10/18 05:57:03;;;;;;;25.53;9.87;;;;;;;5.32;100.00;101492.70;1770122;80;21455;-72
2022/10/18 05:59:31;;;;;;;29.83;12.40;;;;;;;5.45;100.00;101486.06;1693751;80;20975;-80
2022/10/18 06:01:57;;;;;;;32.20;15.33;;;;;;;5.57;100.00;101488.88;1779951;80;20960;-75
2022/10/18 06:04:24;;;;;;;23.00;12.17;;;;;;;5.69;100.00;101484.02;1779639;80;21046;-76
2022/10/18 06:06:52;;;;;;;27.13;12.10;;;;;;;5.81;100.00;101479.66;1780026;80;21047;-75
2022/10/18 06:09:19;;;;;;;30.23;12.00;;;;;;;5.93;100.00;101482.81;1779901;80;20983;-75
2022/10/18 06:11:47;;;;;;;26.17;10.97;;;;;;;6.07;100.00;101487.27;1779273;80;21046;-73
2022/10/18 06:14:14;;;;;;;26.33;11.37;;;;;;;6.23;100.00;101483.02;1778991;80;21098;-76
2022/10/18 06:16:42;;;;;;;21.60;9.57;;;;;;;6.39;100.00;101488.17;1779300;80;21043;-75
2022/10/18 06:19:09;;;;;;;22.23;9.57;;;;;;;6.57;100.00;101481.51;1779646;80;20996;-75
2022/10/18 06:21:37;;;;;;;20.57;9.67;;;;;;;6.78;100.00;101479.56;1779523;80;21478;-78
2022/10/18 06:24:04;;;;;;;23.63;10.40;;;;;;;6.98;100.00;101480.33;1779471;80;21038;-75
2022/10/18 06:26:31;;;;;;;22.13;10.80;;;;;;;7.18;100.00;101473.47;1778489;80;21081;-75
2022/10/18 06:28:58;;;;;;;23.67;10.63;;;;;;;7.43;100.00;101471.63;1778244;80;21051;-74
2022/10/18 06:31:25;;;;;;;22.63;11.40;;;;;;;7.69;100.00;101471.01;1778655;80;21014;-76
2022/10/18 06:33:51;;;;;;;24.83;11.47;;;;;;;7.94;100.00;101463.23;1778698;80;21019;-75
2022/10/18 06:36:21;;;;;;;26.20;11.93;;;;;;;8.17;100.00;101456.55;1778838;80;21046;-76
2022/10/18 06:38:49;;;;;;;20.97;10.10;;;;;;;8.41;100.00;101447.02;1778574;80;21593;-76
2022/10/18 06:41:16;;;;;;;22.53;10.43;;;;;;;8.68;100.00;101435.02;1779831;80;21020;-74
2022/10/18 06:43:48;;;;;;;23.77;10.83;;;;;;;8.97;100.00;101429.06;1779790;80;20940;-76
2022/10/18 06:46:15;;;;;;;20.40;10.07;;;;;;;9.27;100.00;101436.45;1778439;80;20979;-77
2022/10/18 06:48:42;;;;;;;19.83;9.47;;;;;;;9.52;100.00;101440.63;1779353;80;21039;-76
2022/10/18 06:51:10;;;;;;;23.77;10.07;;;;;;;9.69;100.00;101446.81;1779613;80;21019;-77
2022/10/18 06:53:38;;;;;;;20.15;9.78;;;;;;;9.93;100.00;101451.08;1779432;80;20983;-75
2022/10/18 06:56:09;;;;;;;21.57;10.08;;;;;;;10.20;100.00;101455.11;1779511;80;21070;-74
2022/10/18 06:58:36;;;;;;;20.48;9.68;;;;;;;10.44;100.00;101460.22;1779496;80;20972;-75
2022/10/18 07:01:09;;;;;;;21.97;9.50;;;;;;;10.73;100.00;101463.05;1775419;80;20980;-76
2022/10/18 07:03:38;;;;;;;20.57;9.53;;;;;;;11.05;100.00;101467.89;1768502;79;21464;-75
2022/10/18 07:06:07;;;;;;;19.48;8.78;;;;;;;11.36;100.00;101474.07;1778037;80;20995;-82
2022/10/18 07:08:35;;;;;;;18.00;8.80;;;;;;;11.63;100.00;101484.20;1773813;80;21050;-76
2022/10/18 07:11:05;;;;;;;25.25;12.10;;;;;;;11.89;100.00;101482.27;1777417;80;21096;-86
2022/10/18 07:13:32;;;;;;;45.17;24.35;;;;;;;12.04;100.00;101493.54;1773879;80;21747;-69
2022/10/18 07:16:04;;;;;;;20.23;9.43;;;;;;;12.21;100.00;101492.80;1778839;80;21527;-69
2022/10/18 07:18:34;;;;;;;19.75;9.83;;;;;;;12.43;100.00;101494.80;1779388;80;20997;-69
2022/10/18 07:21:03;;;;;;;20.05;9.30;;;;;;;12.69;100.00;101507.20;1776039;80;20988;-69
2022/10/18 07:23:36;;;;;;;19.65;9.03;;;;;;;12.91;100.00;101512.77;1779473;80;21082;-70
2022/10/18 07:26:04;;;;;;;18.00;8.03;;;;;;;13.12;100.00;101517.95;1770459;81;21034;-70
2022/10/18 07:28:31;;;;;;;16.62;7.65;;;;;;;13.36;100.00;101521.97;1775293;80;21342;-70
2022/10/18 07:31:04;;;;;;;19.57;7.83;;;;;;;13.55;100.00;101529.98;1774132;80;21054;-71
2022/10/18 07:33:32;;;;;;;18.53;8.10;;;;;;;13.85;100.00;101526.03;1773766;81;21725;-71
2022/10/18 07:36:05;;;;;;;16.57;7.58;;;;;;;14.10;100.00;101534.39;1776253;81;21433;-70
2022/10/18 07:38:32;;;;;;;;;;;;;;;14.22;100.00;101547.25;1743419;82;20990;-71
2022/10/18 07:41:00;;;;;;;16.93;7.53;;;;;;;14.39;100.00;101546.33;1705976;84;20132;-69
2022/10/18 07:43:27;;;;;;;16.52;7.25;;;;;;;14.60;100.00;101547.87;1677074;85;21054;-72
2022/10/18 07:45:56;;;;;;;14.33;6.97;;;;;;;14.69;100.00;101555.58;1681949;85;21595;-69
2022/10/18 07:48:26;;;;;;;13.75;6.75;;;;;;;14.75;100.00;101562.59;1742096;82;21054;-69
2022/10/18 07:50:53;;;;;;;14.47;6.80;;;;;;;15.01;100.00;101556.25;1740479;82;21117;-71
2022/10/18 07:53:20;;;;;;;13.68;6.83;;;;;;;15.01;100.00;101556.25;1737547;82;21045;-71
2022/10/18 07:55:47;;;;;;;14.80;6.45;;;;;;;15.10;100.00;101551.20;1741329;82;20983;-71
2022/10/18 07:58:14;;;;;;;14.18;6.50;;;;;;;15.27;100.00;101560.80;1736305;82;21006;-71
2022/10/18 08:00:40;;;;;;;16.32;6.58;;;;;;;15.40;100.00;101555.72;1738132;82;21002;-69
2022/10/18 08:03:07;;;;;;;15.75;7.15;;;;;;;15.51;100.00;101553.19;1743410;82;21006;-70
2022/10/18 08:05:35;;;;;;;16.52;6.85;;;;;;;15.62;100.00;101548.80;1738420;82;21526;-70
2022/10/18 08:08:02;;;;;;;14.75;7.08;;;;;;;15.73;100.00;101553.91;1737620;82;21049;-70
2022/10/18 08:10:28;;;;;;;19.17;7.05;;;;;;;15.83;100.00;101548.35;1742857;82;21026;-71
2022/10/18 08:12:57;;;;;;;14.83;6.90;;;;;;;16.04;100.00;101549.71;1742901;82;21065;-70
2022/10/18 08:15:24;;;;;;;16.93;7.22;;;;;;;16.22;100.00;101548.17;1713226;82;21029;-70
2022/10/18 08:17:51;;;;;;;12.00;6.33;;;;;;;16.32;100.00;101545.63;1740279;82;21480;-69
2022/10/18 08:20:18;;;;;;;16.42;6.72;;;;;;;16.40;100.00;101542.55;1739871;82;21136;-70
2022/10/18 08:22:57;;;;;;;12.93;5.45;;;;;;;16.49;100.00;101540.14;1740693;81;21023;-69
2022/10/18 08:25:33;;;;;;;11.73;4.80;;;;;;;16.60;100.00;101553.41;1739773;81;21508;-69
2022/10/18 08:28:00;;;;;;;12.50;5.08;;;;;;;16.83;100.00;101543.12;1775152;81;20963;-70
2022/10/18 08:30:27;;;;;;;19.00;9.30;;;;;;;17.00;100.00;101544.80;1776038;81;21554;-72
2022/10/18 08:32:54;;;;;;;15.10;6.50;;;;;;;17.20;100.00;101546.59;1750663;81;21006;-69
2022/10/18 08:35:21;;;;;;;14.10;5.40;;;;;;;17.40;100.00;101537.41;1777346;80;21022;-72
2022/10/18 08:37:50;;;;;;;30.80;15.80;;;;;;;17.58;100.00;101545.37;1779287;80;21027;-73
2022/10/18 08:40:16;;;;;;;12.75;4.87;;;;;;;17.64;100.00;101550.62;1779455;80;20983;-72
2022/10/18 08:43:00;;;;;;;10.35;4.58;;;;;;;17.69;100.00;101555.53;1778514;80;21510;-70
2022/10/18 08:45:27;;;;;;;9.80;4.25;;;;;;;17.70;100.00;101555.36;1779204;80;21052;-71
2022/10/18 08:47:56;;;;;;;12.33;4.33;;;;;;;17.77;100.00;101546.76;1778988;79;21040;-72
2022/10/18 08:50:34;;;;;;;12.25;5.05;;;;;;;17.98;100.00;101540.65;1770042;80;21056;-70
2022/10/18 08:53:24;;;;;;;12.13;4.63;;;;;;;18.22;100.00;101538.76;1779012;80;21498;-72
2022/10/18 08:56:09;;;;;;;6.42;4.00;;;;;;;18.39;100.00;101536.70;1779492;80;21043;-72
2022/10/18 08:58:35;;;;;;;13.70;4.65;;;;;;;18.54;100.00;101538.11;1732601;82;21477;-70
2022/10/18 09:01:29;;;;;;;17.95;7.55;;;;;;;18.62;100.00;101530.31;1743615;82;21544;-73
2022/10/18 09:04:01;;;;;;;13.60;5.00;;;;;;;18.57;100.00;101526.75;1735355;82;21022;-73
2022/10/18 09:06:44;;;;;;;;;;;;;;;18.57;100.00;101522.64;1771823;80;20995;-71
2022/10/18 09:09:43;;;;;;;10.60;4.28;;;;;;;18.60;100.00;101524.48;1752733;80;20101;-71
2022/10/18 09:12:33;;;;;;;7.50;4.00;;;;;;;18.69;100.00;101515.66;1748565;82;21035;-71
2022/10/18 09:15:17;;;;;;;7.42;4.20;;;;;;;18.91;100.00;101511.66;1748747;81;21030;-72
2022/10/18 09:18:23;;;;;;;9.95;4.05;;;;;;;19.01;100.00;101508.11;1706772;84;21047;-74
2022/10/18 09:21:00;;;;;;;5.10;3.37;;;;;;;19.00;100.00;101498.70;1684310;84;21022;-76
2022/10/18 09:23:50;;;;;;;5.50;3.45;;;;;;;19.04;100.00;101500.05;1689712;84;20978;-75
2022/10/18 09:26:24;;;;;;;6.30;3.50;;;;;;;19.07;100.00;101494.16;1683747;84;21477;-76
2022/10/18 09:29:24;;;;;;;8.70;5.30;;;;;;;19.21;100.00;101491.06;1681101;84;20988;-76
2022/10/18 09:31:59;;;;;;;11.45;4.85;;;;;;;19.16;100.00;101479.32;1654451;86;21062;-74
2022/10/18 09:34:40;;;;;;;25.52;11.12;;;;;;;19.15;99.79;101476.23;1654587;86;21055;-74
2022/10/18 09:37:15;;;;;;;20.12;8.88;;;;;;;19.31;100.00;101476.00;1656961;86;21488;-74
2022/10/18 09:39:41;;;;;;;11.60;5.15;;;;;;;19.57;100.00;101478.70;1656499;86;21066;-79
2022/10/18 09:42:37;;;;;;;7.60;3.30;;;;;;;19.75;94.66;101474.69;1658151;86;21028;-74
2022/10/18 09:45:30;;;;;;;5.97;3.30;;;;;;;19.73;89.94;101472.11;1631003;87;21055;-75
2022/10/18 09:48:13;;;;;;;11.88;6.50;;;;;;;19.63;85.97;101463.35;1573696;90;21108;-74
2022/10/18 09:50:48;;;;;;;9.28;3.70;;;;;;;19.73;82.92;101448.28;1597741;89;21062;-74
2022/10/18 09:53:37;;;;;;;5.58;3.10;;;;;;;19.85;82.73;101451.35;1578324;91;21591;-74
2022/10/18 09:56:15;;;;;;;2.98;2.52;;;;;;;19.98;78.98;101453.34;1608858;88;21098;-72
2022/10/18 09:58:48;;;;;;;3.95;2.95;;;;;;;19.94;74.14;101445.70;1605189;89;21029;-74
2022/10/18 10:01:25;;;;;;;6.10;3.22;;;;;;;20.03;75.61;101433.02;1593376;90;21105;-71
2022/10/18 10:03:52;;;;;;;8.68;2.98;;;;;;;20.13;72.79;101427.16;1593495;90;21064;-75
2022/10/18 10:06:30;;;;;;;4.87;3.00;;;;;;;20.23;71.60;101419.95;1593619;90;21029;-75
2022/10/18 10:09:08;;;;;;;7.55;3.52;;;;;;;20.36;66.36;101419.17;1593231;90;21085;-76
2022/10/18 10:14:25;;;;;;;7.42;3.27;;;;;;;20.39;62.48;101403.13;1541761;93;21099;-76
2022/10/18 10:17:05;;;;;;;5.60;3.90;;;;;;;20.43;63.49;101412.69;1543027;92;21105;-77
2022/10/18 10:19:36;;;;;;;12.80;5.72;;;;;;;20.61;63.97;101405.77;1543382;93;21086;-74
2022/10/18 10:22:10;;;;;;;20.68;9.08;;;;;;;20.83;63.67;101399.14;1544088;92;21079;-72
2022/10/18 10:24:50;;;;;;;5.90;3.10;;;;;;;20.91;61.02;101394.50;1555452;89;21122;-76
2022/10/18 10:27:34;;;;;;;5.55;3.00;;;;;;;20.94;59.41;101385.31;1617730;86;21158;-73
2022/10/18 10:30:01;;;;;;;;;;;;;;;20.86;58.50;101393.77;1594816;89;21085;-75
2022/10/18 10:32:33;;;;;;;6.97;2.90;;;;;;;20.83;58.28;101388.68;1600129;89;20120;-74
2022/10/18 10:35:01;;;;;;;7.60;3.02;;;;;;;20.83;59.39;101379.06;1589620;90;21069;-72
2022/10/18 10:37:34;;;;;;;5.87;3.10;;;;;;;20.93;57.95;101376.77;1610670;89;21561;-78
2022/10/18 10:40:25;;;;;;;4.80;3.08;;;;;;;20.97;57.65;101373.08;1584796;90;21153;-79
2022/10/18 10:42:56;;;;;;;8.60;3.02;;;;;;;21.00;55.33;101368.52;1560704;92;21441;-86
2022/10/18 10:45:25;;;;;;;9.75;3.20;;;;;;;20.84;50.60;101370.61;1562352;92;21087;-78
2022/10/18 10:47:53;;;;;;;5.28;3.00;;;;;;;20.67;50.73;101363.78;1561644;92;21095;-78
2022/10/18 10:50:25;;;;;;;4.08;2.75;;;;;;;20.60;51.78;101351.88;1573823;89;21067;-77
2022/10/18 10:52:53;;;;;;;;;;;;;;;20.58;49.85;101354.00;1594602;89;21071;-81
2022/10/18 10:55:26;;;;;;;5.75;2.85;;;;;;;20.49;50.39;101342.33;1596575;90;20120;-79
2022/10/18 10:57:54;;;;;;;5.83;2.70;;;;;;;20.56;51.73;101337.71;1571677;91;21571;-84
2022/10/18 11:00:40;;;;;;;8.18;3.12;;;;;;;20.70;53.07;101336.40;1559718;92;21086;-84
2022/10/18 11:03:17;;;;;;;5.70;3.02;;;;;;;20.75;50.44;101333.88;1566168;92;21073;-84
2022/10/18 11:05:54;;;;;;;4.78;2.98;;;;;;;20.61;49.66;101337.08;1564472;92;21081;-81
2022/10/18 11:08:24;;;;;;;5.50;2.77;;;;;;;20.45;51.22;101329.53;1548152;93;21121;-80
2022/10/18 11:11:05;;;;;;;8.28;2.98;;;;;;;20.48;50.92;101325.52;1530295;93;21007;-79
2022/10/18 11:13:53;;;;;;;4.58;2.90;;;;;;;20.58;50.88;101331.48;1538307;93;21599;-76
2022/10/18 11:16:25;;;;;;;7.37;3.22;;;;;;;20.61;50.02;101319.22;1544838;91;21108;-76
2022/10/18 11:18:52;;;;;;;4.75;2.90;;;;;;;20.57;50.42;101320.69;1532175;93;21706;-83
2022/10/18 11:21:23;;;;;;;8.35;3.27;;;;;;;20.54;50.88;101311.48;1534195;93;21621;-79
2022/10/18 11:23:52;;;;;;;5.65;3.17;;;;;;;20.51;52.25;101307.25;1533209;94;21091;-79
2022/10/18 11:26:59;;;;;;;6.80;3.40;;;;;;;20.57;54.01;101313.28;1528255;93;21102;-81
2022/10/18 11:29:55;;;;;;;6.42;3.30;;;;;;;20.65;52.87;101312.30;1530413;92;21629;-78
2022/10/18 11:32:42;;;;;;;7.67;3.47;;;;;;;20.58;52.18;101304.00;1516249;90;21862;-78
2022/10/18 11:35:37;;;;;;;7.65;4.33;;;;;;;20.57;52.60;101301.45;1526216;93;21118;-81
2022/10/18 11:38:45;;;;;;;6.33;3.95;;;;;;;20.63;52.97;101293.80;1496355;95;21371;-76
2022/10/18 11:41:30;;;;;;;5.55;3.42;;;;;;;20.67;52.49;101297.29;1481476;96;21141;-75
2022/10/18 11:44:03;;;;;;;9.00;4.00;;;;;;;20.52;52.31;101285.58;1483985;97;21132;-79